createdAt,value
2023-01-13T00:00:04.897Z,93550.63
2023-01-13T00:05:12.328Z,93559.50
2023-01-13T00:10:19.803Z,93548.95
2023-01-13T00:15:26.934Z,93547.32
2023-01-13T00:20:33.639Z,93540.27
2023-01-13T00:25:40.818Z,93543.66
2023-01-13T00:30:47.538Z,93538.83
2023-01-13T00:36:02.645Z,93537.91
2023-01-13T00:41:13.887Z,93539.19
2023-01-13T00:46:23.571Z,93528.13
2023-01-13T00:51:30.739Z,93523.28
2023-01-13T00:56:40.816Z,93534.30
2023-01-13T01:01:46.441Z,93537.31
2023-01-13T01:06:53.962Z,93529.67
2023-01-13T01:12:02.705Z,93534.81
2023-01-13T01:17:09.785Z,93553.94
2023-01-13T01:22:16.461Z,93556.61
2023-01-13T01:27:23.308Z,93553.75
2023-01-13T01:32:30.483Z,93540.95
2023-01-13T01:37:37.278Z,93532.34
2023-01-13T01:43:02.306Z,93523.91
2023-01-13T01:48:10.915Z,93522.00
2023-01-13T01:53:20.681Z,93523.02
2023-01-13T01:58:34.626Z,93512.65
2023-01-13T02:03:45.819Z,93504.65
2023-01-13T02:08:54.032Z,93505.09
2023-01-13T02:14:01.372Z,93501.31
2023-01-13T02:19:21.466Z,93499.03
2023-01-13T02:25:01.615Z,93493.03
2023-01-13T02:30:36.173Z,93477.72
2023-01-13T02:35:56.164Z,93467.96
2023-01-13T02:41:33.199Z,93466.89
2023-01-13T02:47:07.859Z,93467.52
2023-01-13T02:52:37.058Z,93468.05
2023-01-13T02:57:45.478Z,93447.81
2023-01-13T03:02:52.203Z,93439.07
2023-01-13T03:08:41.029Z,93442.02
2023-01-13T03:14:06.733Z,93427.16
2023-01-13T03:19:29.918Z,93441.78
2023-01-13T03:24:53.000Z,93465.44
2023-01-13T03:30:24.580Z,93455.83
2023-01-13T03:35:38.223Z,93466.02
2023-01-13T03:40:51.942Z,93452.12
2023-01-13T03:46:03.248Z,93414.33
2023-01-13T03:51:14.663Z,93464.44
2023-01-13T03:56:34.348Z,93476.77
2023-01-13T04:02:06.145Z,93467.11
2023-01-13T04:07:31.873Z,93465.45
2023-01-13T04:13:05.370Z,93450.95
2023-01-13T04:18:30.819Z,93443.23
2023-01-13T04:23:37.741Z,93420.67
2023-01-13T04:28:44.472Z,93422.85
2023-01-13T04:33:51.136Z,93423.58
2023-01-13T04:38:57.943Z,93402.28
2023-01-13T04:44:04.655Z,93436.98
2023-01-13T04:49:11.379Z,93420.94
2023-01-13T04:54:18.125Z,93435.89
2023-01-13T04:59:25.143Z,93435.11
2023-01-13T05:04:32.675Z,93407.53
2023-01-13T05:09:39.344Z,93232.55
2023-01-13T05:15:03.833Z,93406.91
2023-01-13T05:20:10.499Z,93386.78
2023-01-13T05:25:23.289Z,93402.17
2023-01-13T05:30:37.078Z,93419.00
2023-01-13T05:35:44.113Z,93401.76
2023-01-13T05:41:07.549Z,93391.00
2023-01-13T05:46:15.277Z,93390.52
2023-01-13T05:51:23.581Z,93416.34
2023-01-13T05:56:30.324Z,93408.36
2023-01-13T06:01:37.697Z,93399.56
2023-01-13T06:06:45.213Z,93399.30
2023-01-13T06:11:52.043Z,93388.62
2023-01-13T06:16:58.784Z,93400.92
2023-01-13T06:22:18.093Z,93396.98
2023-01-13T06:27:25.362Z,93410.67
2023-01-13T06:32:39.209Z,93401.80
2023-01-13T06:37:47.166Z,93403.20
2023-01-13T06:43:15.933Z,93401.91
2023-01-13T06:48:28.587Z,93396.64
2023-01-13T06:53:35.346Z,93393.77
2023-01-13T06:58:42.025Z,93399.41
2023-01-13T07:03:48.607Z,93406.63
2023-01-13T07:08:55.278Z,93401.03
2023-01-13T07:14:21.254Z,93399.47
2023-01-13T07:19:27.949Z,93404.64
2023-01-13T07:24:35.450Z,93404.30
2023-01-13T07:29:42.180Z,93396.52
2023-01-13T07:34:49.071Z,93395.44
2023-01-13T07:39:55.775Z,93398.50
2023-01-13T07:45:02.832Z,93406.20
2023-01-13T07:50:10.882Z,93413.95
2023-01-13T07:55:18.445Z,93408.64
2023-01-13T08:00:25.829Z,93406.78
2023-01-13T08:05:32.611Z,93400.86
2023-01-13T08:10:39.309Z,93398.05
2023-01-13T08:15:46.822Z,93405.38
2023-01-13T08:20:54.311Z,93402.67
2023-01-13T08:26:06.851Z,93403.77
2023-01-13T08:31:17.332Z,93410.34
2023-01-13T08:36:25.854Z,93432.19
2023-01-13T08:41:50.230Z,93431.59
2023-01-13T08:46:57.556Z,93432.39
2023-01-13T08:52:04.999Z,93409.70
2023-01-13T08:57:11.742Z,93412.98
2023-01-13T09:02:24.010Z,93414.03
2023-01-13T09:07:31.298Z,93413.82
2023-01-13T09:12:55.899Z,93410.59
2023-01-13T09:18:02.998Z,93421.86
2023-01-13T09:23:11.338Z,93424.28
2023-01-13T09:28:18.235Z,93420.33
2023-01-13T09:33:42.368Z,93416.61
2023-01-13T09:38:50.830Z,93410.54
2023-01-13T09:44:00.500Z,93399.94
2023-01-13T09:49:08.723Z,93390.80
2023-01-13T09:54:32.561Z,93383.36
2023-01-13T09:59:39.695Z,93375.84
2023-01-13T10:04:48.083Z,93354.09
2023-01-13T10:09:55.881Z,93357.78
2023-01-13T10:15:02.538Z,93357.20
2023-01-13T10:20:28.521Z,93354.30
2023-01-13T10:26:14.218Z,93338.50
2023-01-13T10:31:23.427Z,93349.08
2023-01-13T10:36:30.737Z,93326.64
2023-01-13T10:41:37.685Z,93316.94
2023-01-13T10:46:59.576Z,93310.97
2023-01-13T10:52:10.268Z,93306.55
2023-01-13T10:57:28.513Z,93299.91
2023-01-13T11:02:37.130Z,93297.81
2023-01-13T11:07:52.014Z,93282.89
2023-01-13T11:13:09.268Z,93278.13
2023-01-13T11:18:38.155Z,93283.24
2023-01-13T11:23:49.694Z,93281.77
2023-01-13T11:29:09.432Z,93283.24
2023-01-13T11:34:26.376Z,93276.98
2023-01-13T11:39:56.526Z,93267.26
2023-01-13T11:45:19.206Z,93256.78
2023-01-13T11:50:44.781Z,93272.74
2023-01-13T11:56:20.755Z,93264.67
2023-01-13T12:02:11.225Z,93259.42
2023-01-13T12:07:39.916Z,93249.36
2023-01-13T12:12:58.360Z,93239.59
2023-01-13T12:18:30.590Z,93227.67
2023-01-13T12:24:16.260Z,93228.47
2023-01-13T12:29:35.802Z,93227.31
2023-01-13T12:35:20.000Z,93211.57
2023-01-13T12:40:59.331Z,93203.39
2023-01-13T12:46:25.884Z,93215.42
2023-01-13T12:51:54.628Z,93072.36
2023-01-13T12:57:02.854Z,93212.95
2023-01-13T13:02:20.301Z,93204.92
2023-01-13T13:07:40.724Z,93202.36
2023-01-13T13:13:09.492Z,93212.20
2023-01-13T13:18:27.605Z,93215.27
2023-01-13T13:23:45.739Z,93230.34
2023-01-13T13:29:36.333Z,93234.80
2023-01-13T13:35:11.394Z,93232.72
2023-01-13T13:40:34.667Z,93241.09
2023-01-13T13:46:01.742Z,93258.48
2023-01-13T13:51:32.696Z,93263.99
2023-01-13T13:56:44.103Z,93259.12
2023-01-13T14:01:59.505Z,93262.03
2023-01-13T14:07:21.043Z,93257.44
2023-01-13T14:12:31.600Z,93253.48
2023-01-13T14:17:38.519Z,93261.31
2023-01-13T14:22:50.921Z,93259.41
2023-01-13T14:28:02.341Z,93269.78
2023-01-13T14:33:12.573Z,93252.24
2023-01-13T14:38:19.392Z,93259.03
2023-01-13T14:43:28.249Z,93269.17
2023-01-13T14:48:37.042Z,93267.40
2023-01-13T14:53:48.380Z,93273.80
2023-01-13T14:58:55.616Z,93269.44
2023-01-13T15:04:27.473Z,93277.39
2023-01-13T15:09:45.561Z,93284.16
2023-01-13T15:14:53.499Z,93283.80
2023-01-13T15:20:01.828Z,93276.38
2023-01-13T15:25:12.908Z,93285.02
2023-01-13T15:30:25.547Z,93276.55
2023-01-13T15:35:32.792Z,93271.97
2023-01-13T15:40:39.901Z,93273.83
2023-01-13T15:46:05.724Z,93279.53
2023-01-13T15:51:14.879Z,93273.16
2023-01-13T15:56:27.693Z,93273.25
2023-01-13T16:01:34.587Z,93286.59
2023-01-13T16:06:41.673Z,93293.82
2023-01-13T16:11:48.697Z,93290.50
2023-01-13T16:16:55.625Z,93297.73
2023-01-13T16:22:03.207Z,93298.36
2023-01-13T16:27:25.777Z,93302.74
2023-01-13T16:32:32.976Z,93309.20
2023-01-13T16:37:40.126Z,93318.19
2023-01-13T16:42:46.907Z,93318.30
2023-01-13T16:47:54.218Z,93311.02
2023-01-13T16:53:00.874Z,93315.88
2023-01-13T16:58:08.709Z,93333.02
2023-01-13T17:03:17.643Z,93352.76
2023-01-13T17:08:25.404Z,93350.89
2023-01-13T17:13:32.540Z,93347.87
2023-01-13T17:18:39.361Z,93357.85
2023-01-13T17:23:46.458Z,93347.95
2023-01-13T17:28:53.253Z,93350.77
2023-01-13T17:33:59.954Z,93358.59
2023-01-13T17:39:07.193Z,93358.62
2023-01-13T17:44:21.522Z,93364.33
2023-01-13T17:49:28.229Z,93373.64
2023-01-13T17:54:35.772Z,93405.25
2023-01-13T17:59:43.148Z,93408.30
2023-01-13T18:04:49.868Z,93410.27
2023-01-13T18:09:56.550Z,93402.18
2023-01-13T18:15:03.261Z,93396.64
2023-01-13T18:20:30.995Z,93426.52
2023-01-13T18:25:55.307Z,93443.37
2023-01-13T18:31:01.973Z,93440.03
2023-01-13T18:36:10.601Z,93436.66
2023-01-13T18:41:34.735Z,93436.06
2023-01-13T18:46:43.730Z,93428.75
2023-01-13T18:51:51.291Z,93456.19
2023-01-13T18:56:58.218Z,93444.09
2023-01-13T19:02:07.864Z,93444.70
2023-01-13T19:07:17.153Z,93427.56
2023-01-13T19:12:26.963Z,93457.44
2023-01-13T19:17:36.829Z,93467.67
2023-01-13T19:22:46.061Z,93479.61
2023-01-13T19:27:52.844Z,93492.47
2023-01-13T19:32:59.551Z,93502.48
2023-01-13T19:38:06.411Z,93516.23
2023-01-13T19:43:30.812Z,93526.77
2023-01-13T19:48:36.465Z,93540.38
2023-01-13T19:53:43.737Z,93535.08
2023-01-13T19:58:51.147Z,93555.28
2023-01-13T20:03:59.660Z,93569.24
2023-01-13T20:09:06.574Z,93559.78
2023-01-13T20:14:13.886Z,93569.13
2023-01-13T20:19:20.823Z,93580.20
2023-01-13T20:24:27.586Z,93577.44
2023-01-13T20:29:35.532Z,93576.67
2023-01-13T20:34:43.508Z,93571.91
2023-01-13T20:39:50.596Z,93571.19
2023-01-13T20:45:03.583Z,93565.65
2023-01-13T20:50:12.175Z,93567.89
2023-01-13T20:55:19.021Z,93569.66
2023-01-13T21:00:28.431Z,93580.22
2023-01-13T21:05:38.721Z,93575.77
2023-01-13T21:10:46.081Z,93587.00
2023-01-13T21:15:54.500Z,93587.48
2023-01-13T21:21:13.389Z,93601.91
2023-01-13T21:26:22.507Z,93604.77
2023-01-13T21:31:30.275Z,93601.52
2023-01-13T21:36:37.122Z,93596.52
2023-01-13T21:42:01.561Z,93603.47
2023-01-13T21:47:35.675Z,93606.57
2023-01-13T21:52:44.242Z,93603.00
2023-01-13T21:58:01.335Z,93602.20
2023-01-13T22:03:10.644Z,93610.84
2023-01-13T22:08:18.042Z,93621.51
2023-01-13T22:13:42.812Z,93626.04
2023-01-13T22:18:49.798Z,93632.98
2023-01-13T22:23:57.140Z,93645.28
2023-01-13T22:29:04.529Z,93639.70
2023-01-13T22:34:14.174Z,93649.40
2023-01-13T22:39:21.359Z,93649.59
2023-01-13T22:44:28.338Z,93651.36
2023-01-13T22:49:35.693Z,93647.89
2023-01-13T22:54:42.614Z,93643.59
2023-01-13T22:59:50.372Z,93650.16
2023-01-13T23:04:57.200Z,93645.73
2023-01-13T23:10:04.012Z,93528.31
2023-01-13T23:15:11.631Z,93662.51
2023-01-13T23:20:19.708Z,93662.43
2023-01-13T23:25:27.374Z,93669.53
2023-01-13T23:30:34.057Z,93678.22
2023-01-13T23:35:41.484Z,93678.98
2023-01-13T23:40:48.645Z,93681.30
2023-01-13T23:46:11.530Z,93684.55
2023-01-13T23:51:20.912Z,93680.32
2023-01-13T23:56:32.817Z,93683.42
